createdAt,value
2023-01-13T00:00:17.424Z,-3.92
2023-01-13T00:02:44.815Z,-3.91
2023-01-13T00:05:12.233Z,-3.91
2023-01-13T00:07:43.624Z,-3.90
2023-01-13T00:10:11.419Z,-3.88
2023-01-13T00:12:42.512Z,-3.87
2023-01-13T00:15:10.765Z,-3.87
2023-01-13T00:17:39.235Z,-3.87
2023-01-13T00:20:07.456Z,-3.86
2023-01-13T00:22:35.696Z,-3.86
2023-01-13T00:25:04.735Z,-3.85
2023-01-13T00:27:32.143Z,-3.84
2023-01-13T00:29:59.965Z,-3.82
2023-01-13T00:32:28.658Z,-3.81
2023-01-13T00:34:56.727Z,-3.82
2023-01-13T00:37:24.098Z,-3.83
2023-01-13T00:39:52.487Z,-3.83
2023-01-13T00:42:39.122Z,-3.82
2023-01-13T00:45:07.236Z,-3.80
2023-01-13T00:47:34.608Z,-3.79
2023-01-13T00:50:01.920Z,-3.78
2023-01-13T00:52:29.894Z,-3.76
2023-01-13T00:54:57.380Z,-3.75
2023-01-13T00:57:26.201Z,-3.74
2023-01-13T00:59:53.461Z,-3.74
2023-01-13T01:02:20.955Z,-3.74
2023-01-13T01:04:48.254Z,-3.73
2023-01-13T01:07:15.649Z,-3.73
2023-01-13T01:09:43.214Z,-3.72
2023-01-13T01:12:10.560Z,-3.69
2023-01-13T01:14:37.879Z,-3.68
2023-01-13T01:17:05.185Z,-3.67
2023-01-13T01:19:32.838Z,-3.65
2023-01-13T01:22:00.258Z,-3.65
2023-01-13T01:24:27.580Z,-3.66
2023-01-13T01:26:54.942Z,-3.67
2023-01-13T01:29:22.357Z,-3.69
2023-01-13T01:31:49.645Z,-3.69
2023-01-13T01:34:17.048Z,-3.69
2023-01-13T01:36:44.293Z,-3.67
2023-01-13T01:39:11.716Z,-3.67
2023-01-13T01:41:39.118Z,-3.67
2023-01-13T01:44:28.731Z,-3.67
2023-01-13T01:46:56.062Z,-3.66
2023-01-13T01:49:26.835Z,-3.66
2023-01-13T01:52:11.496Z,-3.67
2023-01-13T01:54:40.365Z,-3.68
2023-01-13T01:57:08.765Z,-3.68
2023-01-13T01:59:36.119Z,-3.66
2023-01-13T02:02:07.216Z,-3.63
2023-01-13T02:04:36.748Z,-3.61
2023-01-13T02:07:04.005Z,-3.59
2023-01-13T02:09:31.440Z,-3.57
2023-01-13T02:12:17.448Z,-3.56
2023-01-13T02:14:44.741Z,-3.56
2023-01-13T02:17:21.395Z,-3.56
2023-01-13T02:19:51.691Z,-3.57
2023-01-13T02:22:35.387Z,-3.59
2023-01-13T02:25:31.368Z,-3.61
2023-01-13T02:28:31.245Z,-3.63
2023-01-13T02:31:27.644Z,-3.63
2023-01-13T02:34:16.456Z,-3.62
2023-01-13T02:37:13.213Z,-3.60
2023-01-13T02:39:51.306Z,-3.59
2023-01-13T02:42:50.108Z,-3.58
2023-01-13T02:45:20.511Z,-3.57
2023-01-13T02:47:50.596Z,-3.58
2023-01-13T02:50:19.602Z,-3.59
2023-01-13T02:52:55.909Z,-3.61
2023-01-13T02:55:31.888Z,-3.62
2023-01-13T02:58:00.031Z,-3.63
2023-01-13T03:00:27.329Z,-3.63
2023-01-13T03:02:54.605Z,-3.62
2023-01-13T03:05:21.968Z,-3.61
2023-01-13T03:08:15.995Z,-3.62
2023-01-13T03:10:57.440Z,-3.63
2023-01-13T03:13:37.002Z,-3.63
2023-01-13T03:16:35.749Z,-3.64
2023-01-13T03:19:08.598Z,-3.65
2023-01-13T03:21:39.129Z,-3.65
2023-01-13T03:24:18.621Z,-3.65
2023-01-13T03:26:53.569Z,-3.64
2023-01-13T03:29:29.003Z,-3.64
2023-01-13T03:32:05.450Z,-3.62
2023-01-13T03:34:44.453Z,-3.61
2023-01-13T03:37:11.701Z,-3.61
2023-01-13T03:39:40.345Z,-3.60
2023-01-13T03:42:15.797Z,-3.61
2023-01-13T03:44:47.422Z,-3.62
2023-01-13T03:47:39.067Z,-3.64
2023-01-13T03:50:12.520Z,-3.66
2023-01-13T03:52:46.070Z,-3.66
2023-01-13T03:55:14.627Z,-3.66
2023-01-13T03:57:45.334Z,-3.65
2023-01-13T04:00:13.819Z,-3.64
2023-01-13T04:02:54.966Z,-3.64
2023-01-13T04:05:22.217Z,-3.65
2023-01-13T04:08:20.525Z,-3.65
2023-01-13T04:10:54.291Z,-3.64
2023-01-13T04:13:23.125Z,-3.63
2023-01-13T04:15:50.514Z,-3.62
2023-01-13T04:18:25.545Z,-3.64
2023-01-13T04:20:54.228Z,-3.63
2023-01-13T04:23:21.677Z,-3.63
2023-01-13T04:25:49.014Z,-3.63
2023-01-13T04:28:16.496Z,-3.63
2023-01-13T04:30:44.295Z,-3.62
2023-01-13T04:33:12.255Z,-3.60
2023-01-13T04:35:39.678Z,-3.59
2023-01-13T04:38:12.392Z,-3.59
2023-01-13T04:40:40.651Z,-3.61
2023-01-13T04:43:08.053Z,-3.63
2023-01-13T04:45:35.417Z,-3.62
2023-01-13T04:48:02.735Z,-3.63
2023-01-13T04:50:30.041Z,-3.63
2023-01-13T04:52:57.359Z,-3.63
2023-01-13T04:55:24.819Z,-3.63
2023-01-13T04:57:52.444Z,-3.63
2023-01-13T05:00:21.289Z,-3.65
2023-01-13T05:02:52.156Z,-3.66
2023-01-13T05:05:20.263Z,-3.66
2023-01-13T05:07:47.490Z,-3.65
2023-01-13T05:10:14.774Z,-3.65
2023-01-13T05:13:00.818Z,-3.65
2023-01-13T05:15:46.792Z,-3.65
2023-01-13T05:18:14.115Z,-3.65
2023-01-13T05:20:41.376Z,-3.66
2023-01-13T05:23:27.328Z,-3.65
2023-01-13T05:25:54.561Z,-3.66
2023-01-13T05:28:21.874Z,-3.67
2023-01-13T05:30:52.749Z,-3.67
2023-01-13T05:33:21.092Z,-3.66
2023-01-13T05:35:48.944Z,-3.65
2023-01-13T05:38:16.665Z,-3.64
2023-01-13T05:41:13.228Z,-3.64
2023-01-13T05:43:40.524Z,-3.64
2023-01-13T05:46:09.765Z,-3.65
2023-01-13T05:48:39.202Z,-3.66
2023-01-13T05:51:07.925Z,-3.65
2023-01-13T05:53:35.317Z,-3.64
2023-01-13T05:56:06.337Z,-3.62
2023-01-13T05:58:33.947Z,-3.60
2023-01-13T06:01:02.521Z,-3.58
2023-01-13T06:03:29.891Z,-3.57
2023-01-13T06:05:59.683Z,-3.56
2023-01-13T06:08:27.063Z,-3.55
2023-01-13T06:10:54.513Z,-3.54
2023-01-13T06:13:21.752Z,-3.54
2023-01-13T06:15:49.097Z,-3.53
2023-01-13T06:18:16.371Z,-3.51
2023-01-13T06:20:44.518Z,-3.49
2023-01-13T06:23:11.750Z,-3.46
2023-01-13T06:25:42.893Z,-3.45
2023-01-13T06:28:13.311Z,-3.42
2023-01-13T06:30:55.934Z,-3.38
2023-01-13T06:33:27.685Z,-3.35
2023-01-13T06:35:58.514Z,-3.32
2023-01-13T06:38:26.244Z,-3.28
2023-01-13T06:40:54.622Z,-3.24
2023-01-13T06:43:21.968Z,-3.21
2023-01-13T06:45:56.077Z,-3.17
2023-01-13T06:48:35.607Z,-3.14
2023-01-13T06:51:04.516Z,-3.13
2023-01-13T06:53:31.916Z,-3.13
2023-01-13T06:55:59.462Z,-3.12
2023-01-13T06:58:26.898Z,-3.12
2023-01-13T07:00:54.317Z,-3.11
2023-01-13T07:03:21.898Z,-3.10
2023-01-13T07:05:54.015Z,-3.07
2023-01-13T07:08:21.992Z,-3.02
2023-01-13T07:10:49.343Z,-2.97
2023-01-13T07:13:36.534Z,-2.91
2023-01-13T07:16:05.728Z,-2.85
2023-01-13T07:18:33.732Z,-2.84
2023-01-13T07:21:02.726Z,-2.82
2023-01-13T07:23:35.525Z,-2.81
2023-01-13T07:26:02.982Z,-2.80
2023-01-13T07:28:30.745Z,-2.80
2023-01-13T07:30:58.159Z,-2.78
2023-01-13T07:33:25.561Z,-2.77
2023-01-13T07:35:58.312Z,-2.75
2023-01-13T07:38:26.260Z,-2.71
2023-01-13T07:40:53.691Z,-2.68
2023-01-13T07:43:32.967Z,-2.65
2023-01-13T07:46:05.065Z,-2.59
2023-01-13T07:48:33.506Z,-2.55
2023-01-13T07:51:05.560Z,-2.51
2023-01-13T07:53:33.187Z,-2.47
2023-01-13T07:56:01.010Z,-2.45
2023-01-13T07:58:28.483Z,-2.39
2023-01-13T08:00:56.403Z,-2.32
2023-01-13T08:03:26.679Z,-2.24
2023-01-13T08:05:54.040Z,-2.18
2023-01-13T08:08:21.392Z,-2.15
2023-01-13T08:10:49.972Z,-2.15
2023-01-13T08:13:20.356Z,-2.14
2023-01-13T08:15:53.685Z,-2.12
2023-01-13T08:18:22.560Z,-2.10
2023-01-13T08:20:50.434Z,-2.07
2023-01-13T08:23:17.892Z,-2.06
2023-01-13T08:25:46.336Z,-2.03
2023-01-13T08:28:14.053Z,-1.96
2023-01-13T08:30:41.684Z,-1.89
2023-01-13T08:33:10.689Z,-1.81
2023-01-13T08:35:41.504Z,-1.75
2023-01-13T08:38:09.592Z,-1.69
2023-01-13T08:40:37.014Z,-1.63
2023-01-13T08:43:05.630Z,-1.61
2023-01-13T08:45:33.370Z,-1.57
2023-01-13T08:48:02.452Z,-1.55
2023-01-13T08:50:30.697Z,-1.53
2023-01-13T08:52:58.544Z,-1.50
2023-01-13T08:55:25.851Z,-1.48
2023-01-13T08:57:54.496Z,-1.46
2023-01-13T09:00:23.776Z,-1.42
2023-01-13T09:02:51.179Z,-1.36
2023-01-13T09:05:19.052Z,-1.30
2023-01-13T09:07:49.538Z,-1.25
2023-01-13T09:10:16.894Z,-1.21
2023-01-13T09:13:02.890Z,-1.15
2023-01-13T09:15:30.169Z,-1.12
2023-01-13T09:18:03.559Z,-1.09
2023-01-13T09:20:46.397Z,-1.04
2023-01-13T09:23:14.456Z,-0.97
2023-01-13T09:25:41.778Z,-0.92
2023-01-13T09:28:09.015Z,-0.88
2023-01-13T09:30:37.408Z,-0.84
2023-01-13T09:33:23.585Z,-0.81
2023-01-13T09:35:51.014Z,-0.79
2023-01-13T09:38:18.422Z,-0.79
2023-01-13T09:40:45.813Z,-0.79
2023-01-13T09:43:53.233Z,-0.76
2023-01-13T09:46:47.867Z,-0.72
2023-01-13T09:49:23.112Z,-0.69
2023-01-13T09:52:20.674Z,-0.65
2023-01-13T09:55:03.196Z,-0.59
2023-01-13T09:57:31.045Z,-0.56
2023-01-13T10:00:01.223Z,-0.53
2023-01-13T10:02:57.860Z,-0.46
2023-01-13T10:05:41.722Z,-0.38
2023-01-13T10:08:14.315Z,-0.30
2023-01-13T10:10:54.359Z,-0.24
2023-01-13T10:13:25.943Z,-0.16
2023-01-13T10:15:53.339Z,-0.10
2023-01-13T10:19:10.435Z,-0.04
2023-01-13T10:37:58.823Z,0.24
2023-01-13T10:40:25.959Z,0.29
2023-01-13T10:43:06.854Z,0.25
2023-01-13T10:45:56.115Z,0.21
2023-01-13T10:48:23.384Z,0.15
2023-01-13T10:50:50.718Z,0.10
2023-01-13T10:53:25.511Z,0.05
2023-01-13T10:56:03.695Z,-0.00
2023-01-13T10:58:30.986Z,-0.08
2023-01-13T11:01:03.397Z,-0.15
2023-01-13T11:03:41.827Z,-0.21
2023-01-13T11:06:09.287Z,-0.31
2023-01-13T11:08:45.500Z,-0.40
2023-01-13T11:11:39.375Z,-0.43
2023-01-13T11:14:41.941Z,-0.44
2023-01-13T11:17:33.058Z,-0.47
2023-01-13T11:20:12.581Z,-0.54
2023-01-13T11:22:49.957Z,-0.60
2023-01-13T11:25:23.645Z,-0.65
2023-01-13T11:28:03.969Z,-0.67
2023-01-13T11:30:41.526Z,-0.68
2023-01-13T11:33:15.125Z,-0.67
2023-01-13T11:35:49.095Z,-0.66
2023-01-13T11:38:19.403Z,-0.64
2023-01-13T11:40:47.345Z,-0.61
2023-01-13T11:43:30.249Z,-0.62
2023-01-13T11:45:58.898Z,-0.64
2023-01-13T11:48:29.244Z,-0.64
2023-01-13T11:50:59.138Z,-0.66
2023-01-13T11:53:38.513Z,-0.68
2023-01-13T11:56:10.092Z,-0.67
2023-01-13T11:59:02.235Z,-0.67
2023-01-13T12:01:48.659Z,-0.69
2023-01-13T12:04:37.905Z,-0.73
2023-01-13T12:07:46.948Z,-0.75
2023-01-13T12:10:40.216Z,-0.75
2023-01-13T12:13:07.478Z,-0.74
2023-01-13T12:15:36.718Z,-0.71
2023-01-13T12:18:19.584Z,-0.66
2023-01-13T12:20:53.078Z,-0.60
2023-01-13T12:23:34.872Z,-0.55
2023-01-13T12:26:19.018Z,-0.53
2023-01-13T12:29:03.048Z,-0.57
2023-01-13T12:31:30.493Z,-0.62
2023-01-13T12:34:05.273Z,-0.66
2023-01-13T12:36:53.495Z,-0.70
2023-01-13T12:39:23.715Z,-0.72
2023-01-13T12:42:23.944Z,-0.70
2023-01-13T12:45:07.883Z,-0.70
2023-01-13T12:47:39.724Z,-0.70
2023-01-13T12:50:22.346Z,-0.69
2023-01-13T12:52:50.328Z,-0.68
2023-01-13T12:55:22.394Z,-0.69
2023-01-13T12:57:56.604Z,-0.69
2023-01-13T13:00:23.970Z,-0.71
2023-01-13T13:03:28.434Z,-0.72
2023-01-13T13:06:07.049Z,-0.76
2023-01-13T13:08:47.653Z,-0.82
2023-01-13T13:11:35.017Z,-0.87
2023-01-13T13:14:03.692Z,-0.91
2023-01-13T13:16:30.988Z,-0.94
2023-01-13T13:19:20.331Z,-0.98
2023-01-13T13:22:26.640Z,-0.99
2023-01-13T13:24:57.738Z,-1.02
2023-01-13T13:27:29.128Z,-1.06
2023-01-13T13:30:36.753Z,-1.07
2023-01-13T13:33:16.035Z,-1.09
2023-01-13T13:35:55.057Z,-1.12
2023-01-13T13:39:13.288Z,-1.14
2023-01-13T13:42:02.375Z,-1.14
2023-01-13T13:45:05.177Z,-1.14
2023-01-13T13:47:38.514Z,-1.12
2023-01-13T13:50:20.746Z,-1.09
2023-01-13T13:53:06.015Z,-1.07
2023-01-13T13:55:36.117Z,-1.08
2023-01-13T13:58:03.356Z,-1.09
2023-01-13T14:00:35.192Z,-1.11
2023-01-13T14:03:04.764Z,-1.12
2023-01-13T14:05:33.874Z,-1.15
2023-01-13T14:08:15.408Z,-1.17
2023-01-13T14:10:45.142Z,-1.20
2023-01-13T14:13:19.482Z,-1.23
2023-01-13T14:15:47.661Z,-1.26
2023-01-13T14:18:19.347Z,-1.29
2023-01-13T14:21:17.607Z,-1.30
2023-01-13T14:23:59.761Z,-1.32
2023-01-13T14:26:29.078Z,-1.33
2023-01-13T14:28:57.692Z,-1.34
2023-01-13T14:31:25.431Z,-1.35
2023-01-13T14:33:56.162Z,-1.35
2023-01-13T14:36:34.776Z,-1.36
2023-01-13T14:39:05.822Z,-1.36
2023-01-13T14:41:48.546Z,-1.37
2023-01-13T14:44:19.203Z,-1.37
2023-01-13T14:46:46.568Z,-1.38
2023-01-13T14:49:36.373Z,-1.39
2023-01-13T14:52:05.960Z,-1.40
2023-01-13T14:54:46.941Z,-1.41
2023-01-13T14:57:25.496Z,-1.44
2023-01-13T14:59:57.676Z,-1.46
2023-01-13T15:02:31.736Z,-1.48
2023-01-13T15:05:20.069Z,-1.50
2023-01-13T15:07:51.032Z,-1.51
2023-01-13T15:10:33.091Z,-1.52
2023-01-13T15:13:02.903Z,-1.54
2023-01-13T15:15:35.023Z,-1.55
2023-01-13T15:29:39.724Z,-1.24
2023-01-13T15:32:33.082Z,-1.18
2023-01-13T15:35:01.252Z,-1.21
2023-01-13T15:37:28.830Z,-1.26
2023-01-13T15:39:56.537Z,-1.31
2023-01-13T15:42:42.499Z,-1.37
2023-01-13T15:45:31.478Z,-1.42
2023-01-13T15:47:59.955Z,-1.45
2023-01-13T15:50:27.705Z,-1.46
2023-01-13T15:52:54.911Z,-1.49
2023-01-13T15:55:22.133Z,-1.51
2023-01-13T15:57:50.177Z,-1.55
2023-01-13T16:00:20.512Z,-1.58
2023-01-13T16:02:49.311Z,-1.60
2023-01-13T16:05:16.631Z,-1.62
2023-01-13T16:07:43.723Z,-1.63
2023-01-13T16:10:28.945Z,-1.64
2023-01-13T16:12:56.241Z,-1.65
2023-01-13T16:15:25.137Z,-1.67
2023-01-13T16:18:03.660Z,-1.68
2023-01-13T16:20:30.896Z,-1.68
2023-01-13T16:22:58.134Z,-1.68
2023-01-13T16:25:26.605Z,-1.68
2023-01-13T16:27:54.075Z,-1.68
2023-01-13T16:30:27.103Z,-1.69
2023-01-13T16:32:55.303Z,-1.69
2023-01-13T16:35:23.101Z,-1.68
2023-01-13T16:37:59.461Z,-1.67
2023-01-13T16:40:37.838Z,-1.68
2023-01-13T16:43:07.070Z,-1.68
2023-01-13T16:45:34.431Z,-1.68
2023-01-13T16:48:01.710Z,-1.69
2023-01-13T16:50:41.590Z,-1.71
2023-01-13T16:53:09.761Z,-1.74
2023-01-13T16:55:40.452Z,-1.76
2023-01-13T16:58:10.101Z,-1.78
2023-01-13T17:00:37.256Z,-1.77
2023-01-13T17:03:04.503Z,-1.77
2023-01-13T17:05:31.727Z,-1.76
2023-01-13T17:07:59.051Z,-1.75
2023-01-13T17:10:26.354Z,-1.74
2023-01-13T17:12:53.581Z,-1.74
2023-01-13T17:15:20.797Z,-1.74
2023-01-13T17:17:52.146Z,-1.75
2023-01-13T17:20:19.462Z,-1.76
2023-01-13T17:22:49.720Z,-1.79
2023-01-13T17:25:22.142Z,-1.81
2023-01-13T17:27:49.361Z,-1.82
2023-01-13T17:30:16.652Z,-1.82
2023-01-13T17:32:43.893Z,-1.81
2023-01-13T17:35:13.154Z,-1.82
2023-01-13T17:37:40.517Z,-1.83
2023-01-13T17:40:08.741Z,-1.83
2023-01-13T17:42:37.539Z,-1.84
2023-01-13T17:45:06.435Z,-1.83
2023-01-13T17:47:33.662Z,-1.84
2023-01-13T17:50:00.933Z,-1.83
2023-01-13T17:52:28.093Z,-1.83
2023-01-13T17:54:55.361Z,-1.82
2023-01-13T17:57:22.627Z,-1.82
2023-01-13T17:59:49.915Z,-1.81
2023-01-13T18:02:17.238Z,-1.80
2023-01-13T18:04:44.661Z,-1.81
2023-01-13T18:07:11.893Z,-1.82
2023-01-13T18:09:39.075Z,-1.84
2023-01-13T18:12:06.552Z,-1.87
2023-01-13T18:14:34.418Z,-1.88
2023-01-13T18:17:01.687Z,-1.90
2023-01-13T18:20:01.249Z,-1.92
2023-01-13T18:22:47.295Z,-1.92
2023-01-13T18:25:33.116Z,-1.94
2023-01-13T18:28:03.864Z,-1.94
2023-01-13T18:30:31.044Z,-1.95
2023-01-13T18:32:58.453Z,-1.96
2023-01-13T18:35:25.668Z,-1.97
2023-01-13T18:37:52.918Z,-1.98
2023-01-13T18:40:20.176Z,-1.99
2023-01-13T18:42:56.476Z,-1.99
2023-01-13T18:45:25.642Z,-1.99
2023-01-13T18:47:54.180Z,-1.99
2023-01-13T18:50:22.556Z,-2.01
2023-01-13T18:52:49.988Z,-2.02
2023-01-13T18:55:17.351Z,-2.03
2023-01-13T18:57:44.633Z,-2.05
2023-01-13T19:00:13.876Z,-2.07
2023-01-13T19:02:41.292Z,-2.09
2023-01-13T19:05:09.703Z,-2.09
2023-01-13T19:07:37.005Z,-2.09
2023-01-13T19:10:06.486Z,-2.08
2023-01-13T19:12:34.200Z,-2.08
2023-01-13T19:15:01.812Z,-2.07
2023-01-13T19:17:33.774Z,-2.07
2023-01-13T19:20:01.064Z,-2.09
2023-01-13T19:22:30.626Z,-2.11
2023-01-13T19:24:58.095Z,-2.11
2023-01-13T19:27:25.484Z,-2.13
2023-01-13T19:29:54.052Z,-2.15
2023-01-13T19:32:22.089Z,-2.15
2023-01-13T19:34:51.295Z,-2.15
2023-01-13T19:37:19.417Z,-2.15
2023-01-13T19:39:46.687Z,-2.13
2023-01-13T19:42:32.580Z,-2.13
2023-01-13T19:45:18.419Z,-2.13
2023-01-13T19:47:46.098Z,-2.13
2023-01-13T19:50:13.832Z,-2.14
2023-01-13T19:52:42.285Z,-2.14
2023-01-13T19:55:11.949Z,-2.15
2023-01-13T19:57:40.297Z,-2.15
2023-01-13T20:00:08.545Z,-2.16
2023-01-13T20:02:48.097Z,-2.17
2023-01-13T20:05:21.376Z,-2.18
2023-01-13T20:07:49.356Z,-2.18
2023-01-13T20:10:17.374Z,-2.18
2023-01-13T20:12:44.646Z,-2.18
2023-01-13T20:15:12.110Z,-2.18
2023-01-13T20:17:40.853Z,-2.17
2023-01-13T20:20:09.926Z,-2.17
2023-01-13T20:22:38.539Z,-2.17
2023-01-13T20:25:06.552Z,-2.18
2023-01-13T20:27:33.966Z,-2.18
2023-01-13T20:30:01.175Z,-2.20
2023-01-13T20:32:28.417Z,-2.20
2023-01-13T20:34:55.624Z,-2.18
2023-01-13T20:37:23.113Z,-2.19
2023-01-13T20:39:50.385Z,-2.19
2023-01-13T20:42:29.647Z,-2.17
2023-01-13T20:44:57.579Z,-2.18
2023-01-13T20:47:26.002Z,-2.19
2023-01-13T20:49:53.776Z,-2.19
2023-01-13T20:52:21.725Z,-2.19
2023-01-13T20:54:48.989Z,-2.20
2023-01-13T20:57:18.075Z,-2.21
2023-01-13T20:59:51.544Z,-2.24
2023-01-13T21:02:20.677Z,-2.26
2023-01-13T21:04:47.944Z,-2.29
2023-01-13T21:07:15.357Z,-2.31
2023-01-13T21:09:42.646Z,-2.31
2023-01-13T21:12:32.029Z,-2.30
2023-01-13T21:15:17.466Z,-2.29
2023-01-13T21:18:04.130Z,-2.29
2023-01-13T21:20:33.502Z,-2.30
2023-01-13T21:23:01.753Z,-2.32
2023-01-13T21:25:29.174Z,-2.33
2023-01-13T21:27:59.568Z,-2.34
2023-01-13T21:30:26.818Z,-2.36
2023-01-13T21:32:54.051Z,-2.37
2023-01-13T21:35:21.367Z,-2.40
2023-01-13T21:37:49.028Z,-2.41
2023-01-13T21:40:16.334Z,-2.41
2023-01-13T21:43:02.317Z,-2.42
2023-01-13T21:45:48.190Z,-2.42
2023-01-13T21:48:15.504Z,-2.42
2023-01-13T21:50:43.215Z,-2.42
2023-01-13T21:53:11.413Z,-2.42
2023-01-13T21:55:38.799Z,-2.43
2023-01-13T21:58:11.789Z,-2.43
2023-01-13T22:00:39.286Z,-2.43
2023-01-13T22:03:07.359Z,-2.44
2023-01-13T22:05:34.707Z,-2.46
2023-01-13T22:08:02.038Z,-2.49
2023-01-13T22:10:30.418Z,-2.51
2023-01-13T22:13:21.693Z,-2.52
2023-01-13T22:15:49.177Z,-2.52
2023-01-13T22:18:19.565Z,-2.52
2023-01-13T22:20:49.509Z,-2.52
2023-01-13T22:23:17.618Z,-2.51
2023-01-13T22:25:44.982Z,-2.52
2023-01-13T22:28:14.379Z,-2.53
2023-01-13T22:30:42.828Z,-2.54
2023-01-13T22:33:10.155Z,-2.54
2023-01-13T22:35:38.691Z,-2.55
2023-01-13T22:38:06.516Z,-2.56
2023-01-13T22:40:33.818Z,-2.56
2023-01-13T22:43:01.041Z,-2.56
2023-01-13T22:45:28.272Z,-2.56
2023-01-13T22:47:55.837Z,-2.55
2023-01-13T22:50:23.076Z,-2.53
2023-01-13T22:52:50.435Z,-2.52
2023-01-13T22:55:17.660Z,-2.51
2023-01-13T22:57:48.004Z,-2.51
2023-01-13T23:00:19.363Z,-2.52
2023-01-13T23:02:47.122Z,-2.55
2023-01-13T23:05:14.825Z,-2.57
2023-01-13T23:07:42.068Z,-2.58
2023-01-13T23:10:10.000Z,-2.60
2023-01-13T23:12:37.192Z,-2.61
2023-01-13T23:15:05.549Z,-2.61
2023-01-13T23:17:32.854Z,-2.62
2023-01-13T23:20:00.200Z,-2.62
2023-01-13T23:22:27.494Z,-2.62
2023-01-13T23:24:54.722Z,-2.62
2023-01-13T23:27:21.942Z,-2.64
2023-01-13T23:29:49.604Z,-2.66
2023-01-13T23:32:16.754Z,-2.68
2023-01-13T23:34:43.955Z,-2.68
2023-01-13T23:37:11.429Z,-2.68
2023-01-13T23:39:38.741Z,-2.68
2023-01-13T23:42:06.125Z,-2.66
2023-01-13T23:44:33.344Z,-2.67
2023-01-13T23:47:00.595Z,-2.68
2023-01-13T23:49:27.887Z,-2.68
2023-01-13T23:51:55.091Z,-2.69
2023-01-13T23:54:22.666Z,-2.70
2023-01-13T23:56:50.297Z,-2.71
2023-01-13T23:59:17.495Z,-2.72
